sensor_id;sensor_type;location;lat;lon;timestamp;temperature;humidity
27164;DHT22;14685;50.618;7.024;2023-08-17T00:02:19;23.30;99.90
27164;DHT22;14685;50.618;7.024;2023-08-17T00:04:46;23.30;99.90
27164;DHT22;14685;50.618;7.024;2023-08-17T00:07:13;23.30;99.90
27164;DHT22;14685;50.618;7.024;2023-08-17T00:09:40;23.30;99.90
27164;DHT22;14685;50.618;7.024;2023-08-17T00:12:07;23.20;99.90
27164;DHT22;14685;50.618;7.024;2023-08-17T00:14:34;23.30;99.90
27164;DHT22;14685;50.618;7.024;2023-08-17T00:17:01;23.40;99.90
27164;DHT22;14685;50.618;7.024;2023-08-17T00:19:30;23.20;99.90
27164;DHT22;14685;50.618;7.024;2023-08-17T00:21:57;23.30;99.90
27164;DHT22;14685;50.618;7.024;2023-08-17T00:24:24;23.20;99.90
27164;DHT22;14685;50.618;7.024;2023-08-17T00:26:52;23.20;99.90
27164;DHT22;14685;50.618;7.024;2023-08-17T00:29:21;23.20;99.90
27164;DHT22;14685;50.618;7.024;2023-08-17T00:31:48;23.20;99.90
27164;DHT22;14685;50.618;7.024;2023-08-17T00:34:16;23.20;99.90
27164;DHT22;14685;50.618;7.024;2023-08-17T00:36:43;23.20;99.90
27164;DHT22;14685;50.618;7.024;2023-08-17T00:39:11;23.20;99.90
27164;DHT22;14685;50.618;7.024;2023-08-17T00:41:38;23.20;99.90
27164;DHT22;14685;50.618;7.024;2023-08-17T00:44:06;23.20;99.90
27164;DHT22;14685;50.618;7.024;2023-08-17T00:46:33;23.20;99.90
27164;DHT22;14685;50.618;7.024;2023-08-17T00:49:00;23.20;99.90
27164;DHT22;14685;50.618;7.024;2023-08-17T00:51:28;23.10;99.90
27164;DHT22;14685;50.618;7.024;2023-08-17T00:53:58;23.10;99.90
27164;DHT22;14685;50.618;7.024;2023-08-17T00:56:26;23.10;99.90
27164;DHT22;14685;50.618;7.024;2023-08-17T00:58:54;23.10;99.90
27164;DHT22;14685;50.618;7.024;2023-08-17T01:01:22;23.10;99.90
27164;DHT22;14685;50.618;7.024;2023-08-17T01:03:49;23.10;99.90
27164;DHT22;14685;50.618;7.024;2023-08-17T01:06:17;23.10;99.90
27164;DHT22;14685;50.618;7.024;2023-08-17T01:08:45;23.10;99.90
27164;DHT22;14685;50.618;7.024;2023-08-17T01:17:00;23.00;99.90
27164;DHT22;14685;50.618;7.024;2023-08-17T01:19:29;23.00;99.90
27164;DHT22;14685;50.618;7.024;2023-08-17T01:22:08;23.00;99.90
27164;DHT22;14685;50.618;7.024;2023-08-17T01:24:37;23.00;99.90
27164;DHT22;14685;50.618;7.024;2023-08-17T01:27:05;23.00;99.90
27164;DHT22;14685;50.618;7.024;2023-08-17T01:29:33;23.00;99.90
27164;DHT22;14685;50.618;7.024;2023-08-17T01:32:12;23.00;99.90
27164;DHT22;14685;50.618;7.024;2023-08-17T01:34:48;23.00;99.90
27164;DHT22;14685;50.618;7.024;2023-08-17T01:37:19;23.00;99.90
27164;DHT22;14685;50.618;7.024;2023-08-17T01:39:50;23.00;99.90
27164;DHT22;14685;50.618;7.024;2023-08-17T01:42:20;23.00;99.90
27164;DHT22;14685;50.618;7.024;2023-08-17T01:44:47;23.00;99.90
27164;DHT22;14685;50.618;7.024;2023-08-17T01:47:14;23.00;99.90
27164;DHT22;14685;50.618;7.024;2023-08-17T01:49:42;23.00;99.90
27164;DHT22;14685;50.618;7.024;2023-08-17T01:52:09;23.00;99.90
27164;DHT22;14685;50.618;7.024;2023-08-17T01:54:36;23.00;99.90
27164;DHT22;14685;50.618;7.024;2023-08-17T01:57:03;23.00;99.90
27164;DHT22;14685;50.618;7.024;2023-08-17T01:59:30;23.00;99.90
27164;DHT22;14685;50.618;7.024;2023-08-17T02:04:25;23.00;99.90
27164;DHT22;14685;50.618;7.024;2023-08-17T02:06:53;23.00;99.90
27164;DHT22;14685;50.618;7.024;2023-08-17T02:09:20;22.90;99.90
27164;DHT22;14685;50.618;7.024;2023-08-17T02:11:52;23.00;99.90
27164;DHT22;14685;50.618;7.024;2023-08-17T02:14:20;23.00;99.90
27164;DHT22;14685;50.618;7.024;2023-08-17T02:16:47;22.90;99.90
27164;DHT22;14685;50.618;7.024;2023-08-17T02:19:14;22.90;99.90
27164;DHT22;14685;50.618;7.024;2023-08-17T02:21:41;22.90;99.90
27164;DHT22;14685;50.618;7.024;2023-08-17T02:24:07;22.90;99.90
27164;DHT22;14685;50.618;7.024;2023-08-17T02:26:35;22.90;99.90
27164;DHT22;14685;50.618;7.024;2023-08-17T02:29:02;22.90;99.90
27164;DHT22;14685;50.618;7.024;2023-08-17T02:31:29;22.90;99.90
27164;DHT22;14685;50.618;7.024;2023-08-17T02:33:56;22.90;99.90
27164;DHT22;14685;50.618;7.024;2023-08-17T02:36:27;22.90;99.90
27164;DHT22;14685;50.618;7.024;2023-08-17T02:38:55;22.90;99.90
27164;DHT22;14685;50.618;7.024;2023-08-17T02:41:22;22.90;99.90
27164;DHT22;14685;50.618;7.024;2023-08-17T02:43:49;22.80;99.90
27164;DHT22;14685;50.618;7.024;2023-08-17T02:46:17;22.80;99.90
27164;DHT22;14685;50.618;7.024;2023-08-17T02:48:44;22.80;99.90
27164;DHT22;14685;50.618;7.024;2023-08-17T02:51:12;22.80;99.90
27164;DHT22;14685;50.618;7.024;2023-08-17T02:53:41;22.80;99.90
27164;DHT22;14685;50.618;7.024;2023-08-17T02:56:09;22.80;99.90
27164;DHT22;14685;50.618;7.024;2023-08-17T02:58:41;22.80;99.90
27164;DHT22;14685;50.618;7.024;2023-08-17T03:01:08;22.80;99.90
27164;DHT22;14685;50.618;7.024;2023-08-17T03:03:35;22.80;99.90
27164;DHT22;14685;50.618;7.024;2023-08-17T03:06:05;22.80;99.90
27164;DHT22;14685;50.618;7.024;2023-08-17T03:08:33;22.70;99.90
27164;DHT22;14685;50.618;7.024;2023-08-17T03:11:02;22.80;99.90
27164;DHT22;14685;50.618;7.024;2023-08-17T03:13:29;22.80;99.90
27164;DHT22;14685;50.618;7.024;2023-08-17T03:15:56;22.80;99.90
27164;DHT22;14685;50.618;7.024;2023-08-17T03:18:23;22.80;99.90
27164;DHT22;14685;50.618;7.024;2023-08-17T03:20:50;22.80;99.90
27164;DHT22;14685;50.618;7.024;2023-08-17T03:23:17;22.80;99.90
27164;DHT22;14685;50.618;7.024;2023-08-17T03:25:44;22.70;99.90
27164;DHT22;14685;50.618;7.024;2023-08-17T03:28:12;22.80;99.90
27164;DHT22;14685;50.618;7.024;2023-08-17T03:30:39;22.70;99.90
27164;DHT22;14685;50.618;7.024;2023-08-17T03:33:06;22.80;99.90
27164;DHT22;14685;50.618;7.024;2023-08-17T03:35:34;22.70;99.90
27164;DHT22;14685;50.618;7.024;2023-08-17T03:38:02;22.70;99.90
27164;DHT22;14685;50.618;7.024;2023-08-17T03:40:29;22.70;99.90
27164;DHT22;14685;50.618;7.024;2023-08-17T03:42:57;22.70;99.90
27164;DHT22;14685;50.618;7.024;2023-08-17T03:45:24;22.70;99.90
27164;DHT22;14685;50.618;7.024;2023-08-17T03:47:51;22.80;99.90
27164;DHT22;14685;50.618;7.024;2023-08-17T03:50:18;22.70;99.90
27164;DHT22;14685;50.618;7.024;2023-08-17T03:52:45;22.70;99.90
27164;DHT22;14685;50.618;7.024;2023-08-17T03:55:12;22.70;99.90
27164;DHT22;14685;50.618;7.024;2023-08-17T03:57:39;22.70;99.90
27164;DHT22;14685;50.618;7.024;2023-08-17T04:00:07;22.70;99.90
27164;DHT22;14685;50.618;7.024;2023-08-17T04:02:35;22.60;99.90
27164;DHT22;14685;50.618;7.024;2023-08-17T04:05:02;22.60;99.90
27164;DHT22;14685;50.618;7.024;2023-08-17T04:07:29;22.70;99.90
27164;DHT22;14685;50.618;7.024;2023-08-17T04:09:56;22.60;99.90
27164;DHT22;14685;50.618;7.024;2023-08-17T04:12:24;22.60;99.90
27164;DHT22;14685;50.618;7.024;2023-08-17T04:14:51;22.70;99.90
27164;DHT22;14685;50.618;7.024;2023-08-17T04:17:18;22.60;99.90
27164;DHT22;14685;50.618;7.024;2023-08-17T04:19:48;22.60;99.90
27164;DHT22;14685;50.618;7.024;2023-08-17T04:22:16;22.60;99.90
27164;DHT22;14685;50.618;7.024;2023-08-17T04:24:43;22.60;99.90
27164;DHT22;14685;50.618;7.024;2023-08-17T04:27:10;22.50;99.90
27164;DHT22;14685;50.618;7.024;2023-08-17T04:29:38;22.60;99.90
27164;DHT22;14685;50.618;7.024;2023-08-17T04:32:06;22.60;99.90
27164;DHT22;14685;50.618;7.024;2023-08-17T04:34:33;22.50;99.90
27164;DHT22;14685;50.618;7.024;2023-08-17T04:37:02;22.60;99.90
27164;DHT22;14685;50.618;7.024;2023-08-17T04:39:30;22.50;99.90
27164;DHT22;14685;50.618;7.024;2023-08-17T04:41:57;22.50;99.90
27164;DHT22;14685;50.618;7.024;2023-08-17T04:44:24;22.60;99.90
27164;DHT22;14685;50.618;7.024;2023-08-17T04:46:53;22.60;99.90
27164;DHT22;14685;50.618;7.024;2023-08-17T04:49:20;22.60;99.90
27164;DHT22;14685;50.618;7.024;2023-08-17T04:51:48;22.60;99.90
27164;DHT22;14685;50.618;7.024;2023-08-17T04:54:15;22.60;99.90
27164;DHT22;14685;50.618;7.024;2023-08-17T04:59:11;22.50;99.90
27164;DHT22;14685;50.618;7.024;2023-08-17T05:01:37;22.50;99.90
27164;DHT22;14685;50.618;7.024;2023-08-17T05:04:08;22.40;99.90
27164;DHT22;14685;50.618;7.024;2023-08-17T05:06:35;22.50;99.90
27164;DHT22;14685;50.618;7.024;2023-08-17T05:09:05;22.50;99.90
27164;DHT22;14685;50.618;7.024;2023-08-17T05:11:34;22.50;99.90
27164;DHT22;14685;50.618;7.024;2023-08-17T05:14:03;22.40;99.90
27164;DHT22;14685;50.618;7.024;2023-08-17T05:16:31;22.40;99.90
27164;DHT22;14685;50.618;7.024;2023-08-17T05:18:58;22.40;99.90
27164;DHT22;14685;50.618;7.024;2023-08-17T05:21:28;22.40;99.90
27164;DHT22;14685;50.618;7.024;2023-08-17T05:23:57;22.40;99.90
27164;DHT22;14685;50.618;7.024;2023-08-17T05:26:24;22.40;99.90
27164;DHT22;14685;50.618;7.024;2023-08-17T05:28:51;22.50;99.90
27164;DHT22;14685;50.618;7.024;2023-08-17T05:31:18;22.40;99.90
27164;DHT22;14685;50.618;7.024;2023-08-17T05:33:47;22.50;99.90
27164;DHT22;14685;50.618;7.024;2023-08-17T05:36:14;22.40;99.90
27164;DHT22;14685;50.618;7.024;2023-08-17T05:38:41;22.40;99.90
27164;DHT22;14685;50.618;7.024;2023-08-17T05:41:09;22.40;99.90
27164;DHT22;14685;50.618;7.024;2023-08-17T05:43:36;22.40;99.90
27164;DHT22;14685;50.618;7.024;2023-08-17T05:46:03;22.50;99.90
27164;DHT22;14685;50.618;7.024;2023-08-17T05:48:32;22.40;99.90
27164;DHT22;14685;50.618;7.024;2023-08-17T05:51:01;22.30;99.90
27164;DHT22;14685;50.618;7.024;2023-08-17T05:53:27;22.30;99.90
27164;DHT22;14685;50.618;7.024;2023-08-17T05:55:55;22.30;99.90
27164;DHT22;14685;50.618;7.024;2023-08-17T05:58:23;22.30;99.90
27164;DHT22;14685;50.618;7.024;2023-08-17T06:00:51;22.30;99.90
27164;DHT22;14685;50.618;7.024;2023-08-17T06:03:20;22.30;99.90
27164;DHT22;14685;50.618;7.024;2023-08-17T06:05:47;22.30;99.90
27164;DHT22;14685;50.618;7.024;2023-08-17T06:08:15;22.20;99.90
27164;DHT22;14685;50.618;7.024;2023-08-17T06:10:42;22.20;99.90
27164;DHT22;14685;50.618;7.024;2023-08-17T06:13:09;22.20;99.90
27164;DHT22;14685;50.618;7.024;2023-08-17T06:15:39;22.20;99.90
27164;DHT22;14685;50.618;7.024;2023-08-17T06:18:06;22.20;99.90
27164;DHT22;14685;50.618;7.024;2023-08-17T06:20:34;22.20;99.90
27164;DHT22;14685;50.618;7.024;2023-08-17T06:23:01;22.20;99.90
27164;DHT22;14685;50.618;7.024;2023-08-17T06:25:30;22.10;99.90
27164;DHT22;14685;50.618;7.024;2023-08-17T06:27:57;22.10;99.90
27164;DHT22;14685;50.618;7.024;2023-08-17T06:30:24;22.10;99.90
27164;DHT22;14685;50.618;7.024;2023-08-17T06:32:52;22.10;99.90
27164;DHT22;14685;50.618;7.024;2023-08-17T06:35:19;22.10;99.90
27164;DHT22;14685;50.618;7.024;2023-08-17T06:37:46;22.20;99.90
27164;DHT22;14685;50.618;7.024;2023-08-17T06:40:13;22.10;99.90
27164;DHT22;14685;50.618;7.024;2023-08-17T06:42:41;22.10;99.90
27164;DHT22;14685;50.618;7.024;2023-08-17T06:45:08;22.20;99.90
27164;DHT22;14685;50.618;7.024;2023-08-17T06:47:35;22.20;99.90
27164;DHT22;14685;50.618;7.024;2023-08-17T06:50:03;22.20;99.90
27164;DHT22;14685;50.618;7.024;2023-08-17T06:52:30;22.20;99.90
27164;DHT22;14685;50.618;7.024;2023-08-17T06:55:01;22.20;99.90
27164;DHT22;14685;50.618;7.024;2023-08-17T06:57:27;22.20;99.90
27164;DHT22;14685;50.618;7.024;2023-08-17T06:59:55;22.20;99.90
27164;DHT22;14685;50.618;7.024;2023-08-17T07:02:23;22.20;99.90
27164;DHT22;14685;50.618;7.024;2023-08-17T07:04:55;22.20;99.90
27164;DHT22;14685;50.618;7.024;2023-08-17T07:07:23;22.20;99.90
27164;DHT22;14685;50.618;7.024;2023-08-17T07:09:51;22.20;99.90
27164;DHT22;14685;50.618;7.024;2023-08-17T07:12:18;22.20;99.90
27164;DHT22;14685;50.618;7.024;2023-08-17T07:14:47;22.20;99.90
27164;DHT22;14685;50.618;7.024;2023-08-17T07:17:13;22.20;99.90
27164;DHT22;14685;50.618;7.024;2023-08-17T07:19:41;22.20;99.90
27164;DHT22;14685;50.618;7.024;2023-08-17T07:22:28;22.20;99.90
27164;DHT22;14685;50.618;7.024;2023-08-17T07:24:56;22.20;99.90
27164;DHT22;14685;50.618;7.024;2023-08-17T07:27:23;22.20;99.90
27164;DHT22;14685;50.618;7.024;2023-08-17T07:29:51;22.20;99.90
27164;DHT22;14685;50.618;7.024;2023-08-17T07:32:18;22.20;99.90
27164;DHT22;14685;50.618;7.024;2023-08-17T07:34:45;22.20;99.90
27164;DHT22;14685;50.618;7.024;2023-08-17T07:37:12;22.20;99.90
27164;DHT22;14685;50.618;7.024;2023-08-17T07:39:41;22.20;99.90
27164;DHT22;14685;50.618;7.024;2023-08-17T07:42:08;22.20;99.90
27164;DHT22;14685;50.618;7.024;2023-08-17T07:44:35;22.20;99.90
27164;DHT22;14685;50.618;7.024;2023-08-17T07:47:03;22.20;99.90
27164;DHT22;14685;50.618;7.024;2023-08-17T07:49:30;22.30;99.90
27164;DHT22;14685;50.618;7.024;2023-08-17T07:51:59;22.20;99.90
27164;DHT22;14685;50.618;7.024;2023-08-17T07:54:26;22.30;99.90
27164;DHT22;14685;50.618;7.024;2023-08-17T07:56:53;22.20;99.90
27164;DHT22;14685;50.618;7.024;2023-08-17T07:59:20;22.30;99.90
27164;DHT22;14685;50.618;7.024;2023-08-17T08:01:48;22.30;99.90
27164;DHT22;14685;50.618;7.024;2023-08-17T08:04:17;22.30;99.90
27164;DHT22;14685;50.618;7.024;2023-08-17T08:06:46;22.30;99.90
27164;DHT22;14685;50.618;7.024;2023-08-17T08:09:13;22.30;99.90
27164;DHT22;14685;50.618;7.024;2023-08-17T08:11:40;22.30;99.90
27164;DHT22;14685;50.618;7.024;2023-08-17T08:14:07;22.30;99.90
27164;DHT22;14685;50.618;7.024;2023-08-17T08:16:34;22.40;99.90
27164;DHT22;14685;50.618;7.024;2023-08-17T08:19:00;22.30;99.90
27164;DHT22;14685;50.618;7.024;2023-08-17T08:21:28;22.30;99.90
27164;DHT22;14685;50.618;7.024;2023-08-17T08:23:56;22.40;99.90
27164;DHT22;14685;50.618;7.024;2023-08-17T08:26:23;22.40;99.90
27164;DHT22;14685;50.618;7.024;2023-08-17T08:28:51;22.40;99.90
27164;DHT22;14685;50.618;7.024;2023-08-17T08:31:19;22.40;99.90
27164;DHT22;14685;50.618;7.024;2023-08-17T08:33:48;22.40;99.90
27164;DHT22;14685;50.618;7.024;2023-08-17T08:36:15;22.50;99.90
27164;DHT22;14685;50.618;7.024;2023-08-17T08:38:42;22.50;99.90
27164;DHT22;14685;50.618;7.024;2023-08-17T08:41:10;22.50;99.90
27164;DHT22;14685;50.618;7.024;2023-08-17T08:43:38;22.50;99.90
27164;DHT22;14685;50.618;7.024;2023-08-17T08:46:05;22.50;99.90
27164;DHT22;14685;50.618;7.024;2023-08-17T08:48:34;22.50;99.90
27164;DHT22;14685;50.618;7.024;2023-08-17T08:51:04;22.50;99.90
27164;DHT22;14685;50.618;7.024;2023-08-17T08:53:39;22.50;99.90
27164;DHT22;14685;50.618;7.024;2023-08-17T08:56:11;22.50;99.90
27164;DHT22;14685;50.618;7.024;2023-08-17T08:58:40;22.60;99.90
27164;DHT22;14685;50.618;7.024;2023-08-17T09:01:10;22.60;99.90
27164;DHT22;14685;50.618;7.024;2023-08-17T09:03:38;22.60;99.90
27164;DHT22;14685;50.618;7.024;2023-08-17T09:06:05;22.70;99.90
27164;DHT22;14685;50.618;7.024;2023-08-17T09:08:33;22.60;99.90
27164;DHT22;14685;50.618;7.024;2023-08-17T09:11:03;22.80;99.90
27164;DHT22;14685;50.618;7.024;2023-08-17T09:13:30;22.80;99.90
27164;DHT22;14685;50.618;7.024;2023-08-17T09:15:58;22.90;99.90
27164;DHT22;14685;50.618;7.024;2023-08-17T09:18:34;22.90;99.90
27164;DHT22;14685;50.618;7.024;2023-08-17T09:21:04;23.00;99.90
27164;DHT22;14685;50.618;7.024;2023-08-17T09:23:31;23.00;99.90
27164;DHT22;14685;50.618;7.024;2023-08-17T09:26:08;23.00;99.90
27164;DHT22;14685;50.618;7.024;2023-08-17T09:28:38;23.10;99.90
27164;DHT22;14685;50.618;7.024;2023-08-17T09:31:06;23.10;99.90
27164;DHT22;14685;50.618;7.024;2023-08-17T09:33:37;23.20;99.90
27164;DHT22;14685;50.618;7.024;2023-08-17T09:36:04;23.20;99.90
27164;DHT22;14685;50.618;7.024;2023-08-17T09:38:32;23.20;99.90
27164;DHT22;14685;50.618;7.024;2023-08-17T09:40:59;23.20;99.90
27164;DHT22;14685;50.618;7.024;2023-08-17T09:43:26;23.20;99.90
27164;DHT22;14685;50.618;7.024;2023-08-17T09:45:57;23.30;99.90
27164;DHT22;14685;50.618;7.024;2023-08-17T09:48:25;23.30;99.90
27164;DHT22;14685;50.618;7.024;2023-08-17T09:51:00;23.30;99.90
27164;DHT22;14685;50.618;7.024;2023-08-17T09:53:29;23.40;99.90
27164;DHT22;14685;50.618;7.024;2023-08-17T09:55:57;23.40;99.90
27164;DHT22;14685;50.618;7.024;2023-08-17T09:58:25;23.40;99.90
27164;DHT22;14685;50.618;7.024;2023-08-17T10:00:58;23.40;99.90
27164;DHT22;14685;50.618;7.024;2023-08-17T10:03:29;23.50;99.90
27164;DHT22;14685;50.618;7.024;2023-08-17T10:06:09;23.40;99.90
27164;DHT22;14685;50.618;7.024;2023-08-17T10:08:43;23.40;99.90
27164;DHT22;14685;50.618;7.024;2023-08-17T10:11:16;23.50;99.90
27164;DHT22;14685;50.618;7.024;2023-08-17T10:13:51;23.50;99.90
27164;DHT22;14685;50.618;7.024;2023-08-17T10:16:29;23.50;99.90
27164;DHT22;14685;50.618;7.024;2023-08-17T10:25:00;23.60;99.90
27164;DHT22;14685;50.618;7.024;2023-08-17T10:27:29;23.60;99.90
27164;DHT22;14685;50.618;7.024;2023-08-17T10:29:56;23.60;99.90
27164;DHT22;14685;50.618;7.024;2023-08-17T10:32:25;23.50;99.90
27164;DHT22;14685;50.618;7.024;2023-08-17T10:34:53;23.50;99.90
27164;DHT22;14685;50.618;7.024;2023-08-17T10:37:21;23.60;99.90
27164;DHT22;14685;50.618;7.024;2023-08-17T10:39:50;23.60;99.90
27164;DHT22;14685;50.618;7.024;2023-08-17T10:44:59;23.60;99.90
27164;DHT22;14685;50.618;7.024;2023-08-17T10:47:31;23.60;99.90
27164;DHT22;14685;50.618;7.024;2023-08-17T10:50:22;23.60;99.90
27164;DHT22;14685;50.618;7.024;2023-08-17T10:52:50;23.60;99.90
27164;DHT22;14685;50.618;7.024;2023-08-17T10:55:36;23.70;99.90
27164;DHT22;14685;50.618;7.024;2023-08-17T10:58:03;23.70;99.90
27164;DHT22;14685;50.618;7.024;2023-08-17T11:00:35;23.70;99.90
27164;DHT22;14685;50.618;7.024;2023-08-17T11:03:08;23.70;99.90
27164;DHT22;14685;50.618;7.024;2023-08-17T11:05:40;23.70;99.90
27164;DHT22;14685;50.618;7.024;2023-08-17T11:08:10;23.70;99.90
27164;DHT22;14685;50.618;7.024;2023-08-17T11:10:37;23.70;99.90
27164;DHT22;14685;50.618;7.024;2023-08-17T11:13:05;23.80;99.90
27164;DHT22;14685;50.618;7.024;2023-08-17T11:15:41;23.80;99.90
27164;DHT22;14685;50.618;7.024;2023-08-17T11:18:10;23.80;99.90
27164;DHT22;14685;50.618;7.024;2023-08-17T11:20:40;23.80;99.90
27164;DHT22;14685;50.618;7.024;2023-08-17T11:23:08;23.90;99.90
27164;DHT22;14685;50.618;7.024;2023-08-17T11:25:37;24.00;99.90
27164;DHT22;14685;50.618;7.024;2023-08-17T11:28:07;24.10;99.90
27164;DHT22;14685;50.618;7.024;2023-08-17T11:30:37;24.20;99.90
27164;DHT22;14685;50.618;7.024;2023-08-17T11:33:06;24.30;99.90
27164;DHT22;14685;50.618;7.024;2023-08-17T11:35:34;24.30;99.90
27164;DHT22;14685;50.618;7.024;2023-08-17T11:38:03;24.40;99.90
27164;DHT22;14685;50.618;7.024;2023-08-17T11:40:35;24.40;99.90
27164;DHT22;14685;50.618;7.024;2023-08-17T11:43:03;24.40;99.90
27164;DHT22;14685;50.618;7.024;2023-08-17T11:45:32;24.40;99.90
27164;DHT22;14685;50.618;7.024;2023-08-17T11:48:00;24.40;99.90
27164;DHT22;14685;50.618;7.024;2023-08-17T11:50:31;24.50;99.90
27164;DHT22;14685;50.618;7.024;2023-08-17T11:53:01;24.50;99.90
27164;DHT22;14685;50.618;7.024;2023-08-17T11:55:30;24.50;99.90
27164;DHT22;14685;50.618;7.024;2023-08-17T11:57:57;24.50;99.90
27164;DHT22;14685;50.618;7.024;2023-08-17T12:00:24;24.50;99.90
27164;DHT22;14685;50.618;7.024;2023-08-17T12:02:55;24.50;99.90
27164;DHT22;14685;50.618;7.024;2023-08-17T12:05:24;24.60;99.90
27164;DHT22;14685;50.618;7.024;2023-08-17T12:07:53;24.60;99.90
27164;DHT22;14685;50.618;7.024;2023-08-17T12:10:21;24.70;99.90
27164;DHT22;14685;50.618;7.024;2023-08-17T12:12:49;24.70;99.90
27164;DHT22;14685;50.618;7.024;2023-08-17T12:15:19;24.70;99.90
27164;DHT22;14685;50.618;7.024;2023-08-17T12:17:47;24.70;99.90
27164;DHT22;14685;50.618;7.024;2023-08-17T12:20:16;24.80;99.90
27164;DHT22;14685;50.618;7.024;2023-08-17T12:22:45;24.90;99.90
27164;DHT22;14685;50.618;7.024;2023-08-17T12:25:12;24.90;99.90
27164;DHT22;14685;50.618;7.024;2023-08-17T12:27:39;25.00;99.90
27164;DHT22;14685;50.618;7.024;2023-08-17T12:30:16;25.10;99.90
27164;DHT22;14685;50.618;7.024;2023-08-17T12:32:50;25.20;99.90
27164;DHT22;14685;50.618;7.024;2023-08-17T12:35:17;25.20;99.90
27164;DHT22;14685;50.618;7.024;2023-08-17T12:37:44;25.20;99.90
27164;DHT22;14685;50.618;7.024;2023-08-17T12:40:11;25.20;99.90
27164;DHT22;14685;50.618;7.024;2023-08-17T12:42:38;25.20;99.90
27164;DHT22;14685;50.618;7.024;2023-08-17T12:45:07;25.20;99.90
27164;DHT22;14685;50.618;7.024;2023-08-17T12:47:34;25.20;99.90
27164;DHT22;14685;50.618;7.024;2023-08-17T12:50:02;25.20;99.90
27164;DHT22;14685;50.618;7.024;2023-08-17T12:52:31;25.20;99.90
27164;DHT22;14685;50.618;7.024;2023-08-17T12:54:58;25.10;99.90
27164;DHT22;14685;50.618;7.024;2023-08-17T12:57:25;25.10;99.90
27164;DHT22;14685;50.618;7.024;2023-08-17T12:59:54;25.10;99.90
27164;DHT22;14685;50.618;7.024;2023-08-17T13:02:21;25.10;99.90
27164;DHT22;14685;50.618;7.024;2023-08-17T13:04:48;25.10;99.90
27164;DHT22;14685;50.618;7.024;2023-08-17T13:07:15;25.10;99.90
27164;DHT22;14685;50.618;7.024;2023-08-17T13:09:43;25.00;99.90
27164;DHT22;14685;50.618;7.024;2023-08-17T13:12:12;25.10;99.90
27164;DHT22;14685;50.618;7.024;2023-08-17T13:14:39;25.10;99.90
27164;DHT22;14685;50.618;7.024;2023-08-17T13:17:06;25.10;99.90
27164;DHT22;14685;50.618;7.024;2023-08-17T13:19:33;25.10;99.90
27164;DHT22;14685;50.618;7.024;2023-08-17T13:22:01;25.10;99.90
27164;DHT22;14685;50.618;7.024;2023-08-17T13:24:29;25.10;99.90
27164;DHT22;14685;50.618;7.024;2023-08-17T13:26:56;25.20;99.90
27164;DHT22;14685;50.618;7.024;2023-08-17T13:29:25;25.20;99.90
27164;DHT22;14685;50.618;7.024;2023-08-17T13:31:52;25.20;99.90
27164;DHT22;14685;50.618;7.024;2023-08-17T13:34:19;25.20;99.90
27164;DHT22;14685;50.618;7.024;2023-08-17T13:36:46;25.30;99.90
27164;DHT22;14685;50.618;7.024;2023-08-17T13:39:14;25.40;99.90
27164;DHT22;14685;50.618;7.024;2023-08-17T13:41:41;25.40;99.90
27164;DHT22;14685;50.618;7.024;2023-08-17T13:44:10;25.40;99.90
27164;DHT22;14685;50.618;7.024;2023-08-17T13:46:38;25.50;99.90
27164;DHT22;14685;50.618;7.024;2023-08-17T13:49:05;25.50;99.90
27164;DHT22;14685;50.618;7.024;2023-08-17T13:51:32;25.60;99.90
27164;DHT22;14685;50.618;7.024;2023-08-17T13:54:02;25.60;99.90
27164;DHT22;14685;50.618;7.024;2023-08-17T13:56:29;25.50;99.90
27164;DHT22;14685;50.618;7.024;2023-08-17T13:58:56;25.50;99.90
27164;DHT22;14685;50.618;7.024;2023-08-17T14:01:23;25.60;99.90
27164;DHT22;14685;50.618;7.024;2023-08-17T14:03:50;25.50;99.90
27164;DHT22;14685;50.618;7.024;2023-08-17T14:06:17;25.50;99.90
27164;DHT22;14685;50.618;7.024;2023-08-17T14:08:44;25.50;99.90
27164;DHT22;14685;50.618;7.024;2023-08-17T14:11:12;25.50;99.90
27164;DHT22;14685;50.618;7.024;2023-08-17T14:13:39;25.50;99.90
27164;DHT22;14685;50.618;7.024;2023-08-17T14:16:06;25.60;99.90
27164;DHT22;14685;50.618;7.024;2023-08-17T14:18:32;25.60;99.90
27164;DHT22;14685;50.618;7.024;2023-08-17T14:21:07;25.60;99.90
27164;DHT22;14685;50.618;7.024;2023-08-17T14:23:34;25.60;99.90
27164;DHT22;14685;50.618;7.024;2023-08-17T14:26:01;25.60;99.90
27164;DHT22;14685;50.618;7.024;2023-08-17T14:28:29;25.70;99.90
27164;DHT22;14685;50.618;7.024;2023-08-17T14:30:55;25.60;99.90
27164;DHT22;14685;50.618;7.024;2023-08-17T14:33:22;25.70;99.90
27164;DHT22;14685;50.618;7.024;2023-08-17T14:35:50;25.70;99.90
27164;DHT22;14685;50.618;7.024;2023-08-17T14:38:27;25.70;99.90
27164;DHT22;14685;50.618;7.024;2023-08-17T14:40:56;25.70;99.90
27164;DHT22;14685;50.618;7.024;2023-08-17T14:43:23;25.70;99.90
27164;DHT22;14685;50.618;7.024;2023-08-17T14:45:50;25.70;99.90
27164;DHT22;14685;50.618;7.024;2023-08-17T14:48:18;25.70;99.90
27164;DHT22;14685;50.618;7.024;2023-08-17T14:50:48;25.80;99.90
27164;DHT22;14685;50.618;7.024;2023-08-17T14:53:15;25.70;99.90
27164;DHT22;14685;50.618;7.024;2023-08-17T14:55:42;25.70;99.90
27164;DHT22;14685;50.618;7.024;2023-08-17T14:58:16;25.70;99.90
27164;DHT22;14685;50.618;7.024;2023-08-17T15:00:43;25.70;99.90
27164;DHT22;14685;50.618;7.024;2023-08-17T15:03:10;25.70;99.90
27164;DHT22;14685;50.618;7.024;2023-08-17T15:05:37;25.70;99.90
27164;DHT22;14685;50.618;7.024;2023-08-17T15:08:04;25.70;99.90
27164;DHT22;14685;50.618;7.024;2023-08-17T15:10:32;25.70;99.90
27164;DHT22;14685;50.618;7.024;2023-08-17T15:13:00;25.70;99.90
27164;DHT22;14685;50.618;7.024;2023-08-17T15:15:27;25.70;99.90
27164;DHT22;14685;50.618;7.024;2023-08-17T15:17:55;25.70;99.90
27164;DHT22;14685;50.618;7.024;2023-08-17T15:20:22;25.70;99.90
27164;DHT22;14685;50.618;7.024;2023-08-17T15:22:49;25.70;99.90
27164;DHT22;14685;50.618;7.024;2023-08-17T15:25:16;25.80;99.90
27164;DHT22;14685;50.618;7.024;2023-08-17T15:27:43;25.80;99.90
27164;DHT22;14685;50.618;7.024;2023-08-17T15:30:11;25.80;99.90
27164;DHT22;14685;50.618;7.024;2023-08-17T15:32:38;25.80;99.90
27164;DHT22;14685;50.618;7.024;2023-08-17T15:35:06;25.80;99.90
27164;DHT22;14685;50.618;7.024;2023-08-17T15:37:33;25.80;99.90
27164;DHT22;14685;50.618;7.024;2023-08-17T15:40:01;25.80;99.90
27164;DHT22;14685;50.618;7.024;2023-08-17T15:42:28;25.80;99.90
27164;DHT22;14685;50.618;7.024;2023-08-17T15:44:55;25.80;99.90
27164;DHT22;14685;50.618;7.024;2023-08-17T15:47:22;25.70;99.90
27164;DHT22;14685;50.618;7.024;2023-08-17T15:49:49;25.80;99.90
27164;DHT22;14685;50.618;7.024;2023-08-17T15:52:16;25.70;99.90
27164;DHT22;14685;50.618;7.024;2023-08-17T15:54:43;25.70;99.90
27164;DHT22;14685;50.618;7.024;2023-08-17T15:57:10;25.60;99.90